Seattle, Washington
Traffic Map
Current Weather Conditions
Seattle, Washington
Scattered Clouds
Scattered Clouds
72°
Feels Like: 72°
Wind Chill: 72° Ceiling: Unl
Heat Index: 72° Visibility: 10mi
Dew Point: 52° Wind: 0mph
Humidity: 49% Direction: ° ()
Pressure: 29.99in Gusts: 0mph
Raw Report DataKBFI 200553Z 00000KT 10SM SCT250 22/11 A2999 RMK AO2 SLP156 T02220111 10300 20222 51007 $
Traffic Incident Summary
Active as of:
Severity:
Category:
InformationThere was an issue retrieving the traffic information for this location. Please try a different location or try again shortly.
Advertisements